sensor_id;sensor_type;location;lat;lon;timestamp;P1;durP1;ratioP1;P2;durP2;ratioP2
56183;SDS011;42086;53.170;6.980;2022-11-27T00:01:22;32.47;;;12.73;;
56183;SDS011;42086;53.170;6.980;2022-11-27T00:03:50;33.20;;;11.57;;
56183;SDS011;42086;53.170;6.980;2022-11-27T00:06:19;27.13;;;10.10;;
56183;SDS011;42086;53.170;6.980;2022-11-27T00:08:48;33.40;;;11.00;;
56183;SDS011;42086;53.170;6.980;2022-11-27T00:11:15;24.15;;;9.73;;
56183;SDS011;42086;53.170;6.980;2022-11-27T00:13:43;24.67;;;10.23;;
56183;SDS011;42086;53.170;6.980;2022-11-27T00:16:09;25.20;;;9.35;;
56183;SDS011;42086;53.170;6.980;2022-11-27T00:18:36;27.52;;;9.88;;
56183;SDS011;42086;53.170;6.980;2022-11-27T00:21:06;30.67;;;10.02;;
56183;SDS011;42086;53.170;6.980;2022-11-27T00:23:34;31.75;;;10.27;;
56183;SDS011;42086;53.170;6.980;2022-11-27T00:26:00;27.70;;;10.25;;
56183;SDS011;42086;53.170;6.980;2022-11-27T00:28:26;27.95;;;9.45;;
56183;SDS011;42086;53.170;6.980;2022-11-27T00:30:52;36.63;;;10.40;;
56183;SDS011;42086;53.170;6.980;2022-11-27T00:33:25;29.90;;;9.57;;
56183;SDS011;42086;53.170;6.980;2022-11-27T00:35:51;27.75;;;9.40;;
56183;SDS011;42086;53.170;6.980;2022-11-27T00:38:17;35.33;;;10.25;;
56183;SDS011;42086;53.170;6.980;2022-11-27T00:40:44;21.95;;;9.23;;
56183;SDS011;42086;53.170;6.980;2022-11-27T00:43:10;24.65;;;9.18;;
56183;SDS011;42086;53.170;6.980;2022-11-27T00:45:36;26.38;;;9.65;;
56183;SDS011;42086;53.170;6.980;2022-11-27T00:48:02;22.88;;;9.43;;
56183;SDS011;42086;53.170;6.980;2022-11-27T00:50:28;28.77;;;10.07;;
56183;SDS011;42086;53.170;6.980;2022-11-27T00:52:56;24.83;;;9.55;;
56183;SDS011;42086;53.170;6.980;2022-11-27T00:55:23;25.60;;;9.45;;
56183;SDS011;42086;53.170;6.980;2022-11-27T00:57:48;26.00;;;9.77;;
56183;SDS011;42086;53.170;6.980;2022-11-27T01:00:14;26.05;;;9.20;;
56183;SDS011;42086;53.170;6.980;2022-11-27T01:02:41;29.08;;;9.75;;
56183;SDS011;42086;53.170;6.980;2022-11-27T01:05:06;22.45;;;9.23;;
56183;SDS011;42086;53.170;6.980;2022-11-27T01:07:32;23.30;;;9.77;;
56183;SDS011;42086;53.170;6.980;2022-11-27T01:09:58;21.33;;;9.63;;
56183;SDS011;42086;53.170;6.980;2022-11-27T01:12:24;23.52;;;10.30;;
56183;SDS011;42086;53.170;6.980;2022-11-27T01:14:49;25.30;;;9.05;;
56183;SDS011;42086;53.170;6.980;2022-11-27T01:17:15;29.42;;;9.43;;
56183;SDS011;42086;53.170;6.980;2022-11-27T01:19:41;24.90;;;9.40;;
56183;SDS011;42086;53.170;6.980;2022-11-27T01:22:06;26.35;;;9.68;;
56183;SDS011;42086;53.170;6.980;2022-11-27T01:24:32;23.25;;;9.25;;
56183;SDS011;42086;53.170;6.980;2022-11-27T01:26:58;25.40;;;9.35;;
56183;SDS011;42086;53.170;6.980;2022-11-27T01:29:24;22.60;;;9.35;;
56183;SDS011;42086;53.170;6.980;2022-11-27T01:31:49;24.85;;;9.43;;
56183;SDS011;42086;53.170;6.980;2022-11-27T01:34:16;25.55;;;8.50;;
56183;SDS011;42086;53.170;6.980;2022-11-27T01:36:42;24.33;;;9.50;;
56183;SDS011;42086;53.170;6.980;2022-11-27T01:39:10;20.27;;;9.27;;
56183;SDS011;42086;53.170;6.980;2022-11-27T01:41:43;23.75;;;9.18;;
56183;SDS011;42086;53.170;6.980;2022-11-27T01:49:37;23.58;;;9.32;;
56183;SDS011;42086;53.170;6.980;2022-11-27T01:52:09;20.70;;;8.40;;
56183;SDS011;42086;53.170;6.980;2022-11-27T01:55:04;22.33;;;9.10;;
56183;SDS011;42086;53.170;6.980;2022-11-27T01:57:42;25.88;;;9.07;;
56183;SDS011;42086;53.170;6.980;2022-11-27T02:00:10;24.48;;;8.68;;
56183;SDS011;42086;53.170;6.980;2022-11-27T02:02:38;22.30;;;9.05;;
56183;SDS011;42086;53.170;6.980;2022-11-27T02:05:05;23.50;;;9.15;;
56183;SDS011;42086;53.170;6.980;2022-11-27T02:07:31;25.73;;;9.68;;
56183;SDS011;42086;53.170;6.980;2022-11-27T02:09:57;23.58;;;9.07;;
56183;SDS011;42086;53.170;6.980;2022-11-27T02:12:24;22.75;;;9.07;;
56183;SDS011;42086;53.170;6.980;2022-11-27T02:21:03;23.10;;;8.73;;
56183;SDS011;42086;53.170;6.980;2022-11-27T02:29:09;22.33;;;9.45;;
56183;SDS011;42086;53.170;6.980;2022-11-27T02:31:48;22.38;;;9.02;;
56183;SDS011;42086;53.170;6.980;2022-11-27T02:35:05;19.15;;;8.80;;
56183;SDS011;42086;53.170;6.980;2022-11-27T02:42:35;22.92;;;8.75;;
56183;SDS011;42086;53.170;6.980;2022-11-27T02:45:08;22.52;;;8.45;;
56183;SDS011;42086;53.170;6.980;2022-11-27T02:47:38;21.15;;;8.80;;
56183;SDS011;42086;53.170;6.980;2022-11-27T02:50:11;21.90;;;8.30;;
56183;SDS011;42086;53.170;6.980;2022-11-27T02:52:43;22.52;;;8.98;;
56183;SDS011;42086;53.170;6.980;2022-11-27T02:55:12;28.83;;;9.60;;
56183;SDS011;42086;53.170;6.980;2022-11-27T02:57:41;18.92;;;7.95;;
56183;SDS011;42086;53.170;6.980;2022-11-27T03:00:08;20.48;;;8.02;;
56183;SDS011;42086;53.170;6.980;2022-11-27T03:02:41;19.05;;;8.13;;
56183;SDS011;42086;53.170;6.980;2022-11-27T03:05:12;18.40;;;8.35;;
56183;SDS011;42086;53.170;6.980;2022-11-27T03:07:47;20.98;;;8.27;;
56183;SDS011;42086;53.170;6.980;2022-11-27T03:10:42;17.67;;;8.55;;
56183;SDS011;42086;53.170;6.980;2022-11-27T03:13:25;24.15;;;9.18;;
56183;SDS011;42086;53.170;6.980;2022-11-27T03:24:24;23.25;;;7.38;;
56183;SDS011;42086;53.170;6.980;2022-11-27T03:26:51;20.90;;;7.90;;
56183;SDS011;42086;53.170;6.980;2022-11-27T03:29:19;19.23;;;8.10;;
56183;SDS011;42086;53.170;6.980;2022-11-27T03:31:51;19.27;;;7.18;;
56183;SDS011;42086;53.170;6.980;2022-11-27T03:34:17;20.27;;;7.55;;
56183;SDS011;42086;53.170;6.980;2022-11-27T03:36:44;15.77;;;7.50;;
56183;SDS011;42086;53.170;6.980;2022-11-27T03:39:10;15.73;;;7.25;;
56183;SDS011;42086;53.170;6.980;2022-11-27T03:44:51;17.88;;;7.10;;
56183;SDS011;42086;53.170;6.980;2022-11-27T03:50:32;18.63;;;7.05;;
56183;SDS011;42086;53.170;6.980;2022-11-27T03:59:03;17.20;;;6.93;;
56183;SDS011;42086;53.170;6.980;2022-11-27T04:01:31;17.98;;;6.93;;
56183;SDS011;42086;53.170;6.980;2022-11-27T04:03:56;16.80;;;6.93;;
56183;SDS011;42086;53.170;6.980;2022-11-27T04:06:22;17.73;;;6.88;;
56183;SDS011;42086;53.170;6.980;2022-11-27T04:08:48;18.42;;;6.97;;
56183;SDS011;42086;53.170;6.980;2022-11-27T04:11:14;16.95;;;7.00;;
56183;SDS011;42086;53.170;6.980;2022-11-27T04:13:40;16.40;;;5.90;;
56183;SDS011;42086;53.170;6.980;2022-11-27T04:16:05;14.75;;;6.15;;
56183;SDS011;42086;53.170;6.980;2022-11-27T04:18:31;17.95;;;6.18;;
56183;SDS011;42086;53.170;6.980;2022-11-27T04:20:57;19.38;;;6.38;;
56183;SDS011;42086;53.170;6.980;2022-11-27T04:23:23;18.17;;;6.45;;
56183;SDS011;42086;53.170;6.980;2022-11-27T04:25:49;17.25;;;6.20;;
56183;SDS011;42086;53.170;6.980;2022-11-27T04:28:15;20.55;;;5.55;;
56183;SDS011;42086;53.170;6.980;2022-11-27T04:30:44;16.90;;;5.95;;
56183;SDS011;42086;53.170;6.980;2022-11-27T04:33:14;15.27;;;5.80;;
56183;SDS011;42086;53.170;6.980;2022-11-27T04:35:40;15.30;;;6.18;;
56183;SDS011;42086;53.170;6.980;2022-11-27T04:38:05;17.23;;;5.82;;
56183;SDS011;42086;53.170;6.980;2022-11-27T04:40:31;16.42;;;5.88;;
56183;SDS011;42086;53.170;6.980;2022-11-27T04:42:57;11.90;;;5.00;;
56183;SDS011;42086;53.170;6.980;2022-11-27T04:45:22;16.15;;;5.60;;
56183;SDS011;42086;53.170;6.980;2022-11-27T04:47:48;15.02;;;5.60;;
56183;SDS011;42086;53.170;6.980;2022-11-27T04:50:14;15.65;;;5.70;;
56183;SDS011;42086;53.170;6.980;2022-11-27T04:52:39;19.55;;;5.40;;
56183;SDS011;42086;53.170;6.980;2022-11-27T04:55:05;15.68;;;5.78;;
56183;SDS011;42086;53.170;6.980;2022-11-27T04:57:31;16.05;;;5.40;;
56183;SDS011;42086;53.170;6.980;2022-11-27T04:59:57;16.67;;;5.50;;
56183;SDS011;42086;53.170;6.980;2022-11-27T05:02:23;15.02;;;5.47;;
56183;SDS011;42086;53.170;6.980;2022-11-27T05:04:48;17.10;;;5.50;;
56183;SDS011;42086;53.170;6.980;2022-11-27T05:07:14;13.95;;;4.88;;
56183;SDS011;42086;53.170;6.980;2022-11-27T05:09:40;15.80;;;5.43;;
56183;SDS011;42086;53.170;6.980;2022-11-27T05:12:06;12.80;;;5.13;;
56183;SDS011;42086;53.170;6.980;2022-11-27T05:14:32;13.75;;;5.43;;
56183;SDS011;42086;53.170;6.980;2022-11-27T05:16:58;16.15;;;5.00;;
56183;SDS011;42086;53.170;6.980;2022-11-27T05:19:24;16.80;;;5.40;;
56183;SDS011;42086;53.170;6.980;2022-11-27T05:21:52;16.83;;;5.20;;
56183;SDS011;42086;53.170;6.980;2022-11-27T05:24:20;14.23;;;5.35;;
56183;SDS011;42086;53.170;6.980;2022-11-27T05:26:47;15.73;;;5.63;;
56183;SDS011;42086;53.170;6.980;2022-11-27T05:29:13;15.02;;;5.15;;
56183;SDS011;42086;53.170;6.980;2022-11-27T05:31:39;13.57;;;5.13;;
56183;SDS011;42086;53.170;6.980;2022-11-27T05:34:05;17.35;;;5.22;;
56183;SDS011;42086;53.170;6.980;2022-11-27T05:36:32;11.88;;;5.13;;
56183;SDS011;42086;53.170;6.980;2022-11-27T05:38:58;17.40;;;6.32;;
56183;SDS011;42086;53.170;6.980;2022-11-27T05:41:25;13.35;;;4.30;;
56183;SDS011;42086;53.170;6.980;2022-11-27T05:43:51;14.00;;;4.93;;
56183;SDS011;42086;53.170;6.980;2022-11-27T05:46:18;14.95;;;5.00;;
56183;SDS011;42086;53.170;6.980;2022-11-27T05:48:46;12.77;;;4.70;;
56183;SDS011;42086;53.170;6.980;2022-11-27T05:51:12;13.93;;;5.03;;
56183;SDS011;42086;53.170;6.980;2022-11-27T05:53:38;16.40;;;5.05;;
56183;SDS011;42086;53.170;6.980;2022-11-27T05:56:05;16.13;;;5.10;;
56183;SDS011;42086;53.170;6.980;2022-11-27T05:58:34;13.15;;;5.15;;
56183;SDS011;42086;53.170;6.980;2022-11-27T06:01:01;13.80;;;4.55;;
56183;SDS011;42086;53.170;6.980;2022-11-27T06:03:28;11.20;;;4.32;;
56183;SDS011;42086;53.170;6.980;2022-11-27T06:05:53;16.48;;;5.10;;
56183;SDS011;42086;53.170;6.980;2022-11-27T06:08:19;16.98;;;4.82;;
56183;SDS011;42086;53.170;6.980;2022-11-27T06:10:46;15.38;;;5.60;;
56183;SDS011;42086;53.170;6.980;2022-11-27T06:13:12;12.85;;;5.47;;
56183;SDS011;42086;53.170;6.980;2022-11-27T06:15:38;17.23;;;5.65;;
56183;SDS011;42086;53.170;6.980;2022-11-27T06:18:04;14.52;;;5.38;;
56183;SDS011;42086;53.170;6.980;2022-11-27T06:20:30;11.85;;;5.32;;
56183;SDS011;42086;53.170;6.980;2022-11-27T06:22:56;12.27;;;5.25;;
56183;SDS011;42086;53.170;6.980;2022-11-27T06:25:22;12.60;;;5.35;;
56183;SDS011;42086;53.170;6.980;2022-11-27T06:27:48;19.08;;;5.95;;
56183;SDS011;42086;53.170;6.980;2022-11-27T06:30:14;14.00;;;5.38;;
56183;SDS011;42086;53.170;6.980;2022-11-27T06:32:40;13.88;;;5.13;;
56183;SDS011;42086;53.170;6.980;2022-11-27T06:35:06;11.48;;;4.95;;
56183;SDS011;42086;53.170;6.980;2022-11-27T06:37:32;10.43;;;5.13;;
56183;SDS011;42086;53.170;6.980;2022-11-27T06:39:58;12.80;;;5.50;;
56183;SDS011;42086;53.170;6.980;2022-11-27T06:42:23;10.05;;;4.88;;
56183;SDS011;42086;53.170;6.980;2022-11-27T06:44:49;11.80;;;4.45;;
56183;SDS011;42086;53.170;6.980;2022-11-27T06:47:15;10.75;;;5.43;;
56183;SDS011;42086;53.170;6.980;2022-11-27T06:49:40;12.05;;;4.80;;
56183;SDS011;42086;53.170;6.980;2022-11-27T06:52:06;12.65;;;5.20;;
56183;SDS011;42086;53.170;6.980;2022-11-27T06:54:32;16.50;;;5.50;;
56183;SDS011;42086;53.170;6.980;2022-11-27T06:56:57;16.08;;;5.70;;
56183;SDS011;42086;53.170;6.980;2022-11-27T06:59:23;12.70;;;4.35;;
56183;SDS011;42086;53.170;6.980;2022-11-27T07:01:49;15.10;;;5.07;;
56183;SDS011;42086;53.170;6.980;2022-11-27T07:04:15;14.15;;;5.38;;
56183;SDS011;42086;53.170;6.980;2022-11-27T07:06:41;15.20;;;5.10;;
56183;SDS011;42086;53.170;6.980;2022-11-27T07:09:07;14.00;;;5.93;;
56183;SDS011;42086;53.170;6.980;2022-11-27T07:11:33;13.00;;;5.40;;
56183;SDS011;42086;53.170;6.980;2022-11-27T07:14:00;11.98;;;5.15;;
56183;SDS011;42086;53.170;6.980;2022-11-27T07:16:29;12.20;;;5.20;;
56183;SDS011;42086;53.170;6.980;2022-11-27T07:18:57;14.43;;;5.38;;
56183;SDS011;42086;53.170;6.980;2022-11-27T07:21:25;14.13;;;5.15;;
56183;SDS011;42086;53.170;6.980;2022-11-27T07:23:51;16.13;;;5.60;;
56183;SDS011;42086;53.170;6.980;2022-11-27T07:26:18;13.80;;;5.43;;
56183;SDS011;42086;53.170;6.980;2022-11-27T07:28:46;11.52;;;5.07;;
56183;SDS011;42086;53.170;6.980;2022-11-27T07:31:13;13.30;;;5.63;;
56183;SDS011;42086;53.170;6.980;2022-11-27T07:33:40;12.98;;;5.35;;
56183;SDS011;42086;53.170;6.980;2022-11-27T07:36:09;13.48;;;5.28;;
56183;SDS011;42086;53.170;6.980;2022-11-27T07:38:37;10.30;;;5.57;;
56183;SDS011;42086;53.170;6.980;2022-11-27T07:41:04;13.75;;;5.38;;
56183;SDS011;42086;53.170;6.980;2022-11-27T07:43:31;11.95;;;5.68;;
56183;SDS011;42086;53.170;6.980;2022-11-27T07:45:58;13.88;;;5.65;;
56183;SDS011;42086;53.170;6.980;2022-11-27T07:48:27;16.63;;;5.40;;
56183;SDS011;42086;53.170;6.980;2022-11-27T07:50:53;11.35;;;5.30;;
56183;SDS011;42086;53.170;6.980;2022-11-27T07:53:18;17.17;;;5.30;;
56183;SDS011;42086;53.170;6.980;2022-11-27T07:55:44;16.88;;;5.68;;
56183;SDS011;42086;53.170;6.980;2022-11-27T07:58:10;11.25;;;5.65;;
56183;SDS011;42086;53.170;6.980;2022-11-27T08:00:35;11.68;;;5.35;;
56183;SDS011;42086;53.170;6.980;2022-11-27T08:03:02;15.75;;;5.63;;
56183;SDS011;42086;53.170;6.980;2022-11-27T08:05:28;12.23;;;5.38;;
56183;SDS011;42086;53.170;6.980;2022-11-27T08:07:53;10.70;;;5.63;;
56183;SDS011;42086;53.170;6.980;2022-11-27T08:10:20;13.63;;;7.07;;
56183;SDS011;42086;53.170;6.980;2022-11-27T08:12:46;15.13;;;6.18;;
56183;SDS011;42086;53.170;6.980;2022-11-27T08:15:12;13.32;;;5.18;;
56183;SDS011;42086;53.170;6.980;2022-11-27T08:17:38;14.30;;;5.90;;
56183;SDS011;42086;53.170;6.980;2022-11-27T08:20:04;15.90;;;5.85;;
56183;SDS011;42086;53.170;6.980;2022-11-27T08:22:30;11.73;;;5.05;;
56183;SDS011;42086;53.170;6.980;2022-11-27T08:24:56;12.13;;;5.93;;
56183;SDS011;42086;53.170;6.980;2022-11-27T08:27:22;13.38;;;5.47;;
56183;SDS011;42086;53.170;6.980;2022-11-27T08:29:47;14.05;;;5.30;;
56183;SDS011;42086;53.170;6.980;2022-11-27T08:32:13;11.80;;;5.13;;
56183;SDS011;42086;53.170;6.980;2022-11-27T08:34:39;17.35;;;5.47;;
56183;SDS011;42086;53.170;6.980;2022-11-27T08:37:05;10.00;;;5.53;;
56183;SDS011;42086;53.170;6.980;2022-11-27T08:39:32;15.13;;;4.97;;
56183;SDS011;42086;53.170;6.980;2022-11-27T08:41:57;9.05;;;5.10;;
56183;SDS011;42086;53.170;6.980;2022-11-27T08:44:23;14.88;;;5.65;;
56183;SDS011;42086;53.170;6.980;2022-11-27T08:46:49;10.88;;;5.55;;
56183;SDS011;42086;53.170;6.980;2022-11-27T08:49:16;9.45;;;4.82;;
56183;SDS011;42086;53.170;6.980;2022-11-27T08:51:41;13.15;;;5.03;;
56183;SDS011;42086;53.170;6.980;2022-11-27T08:54:07;13.48;;;5.57;;
56183;SDS011;42086;53.170;6.980;2022-11-27T08:56:33;12.90;;;6.22;;
56183;SDS011;42086;53.170;6.980;2022-11-27T08:59:00;13.70;;;5.28;;
56183;SDS011;42086;53.170;6.980;2022-11-27T09:01:27;12.85;;;5.60;;
56183;SDS011;42086;53.170;6.980;2022-11-27T09:03:54;16.95;;;5.95;;
56183;SDS011;42086;53.170;6.980;2022-11-27T09:06:21;10.85;;;5.45;;
56183;SDS011;42086;53.170;6.980;2022-11-27T09:08:48;11.52;;;5.07;;
56183;SDS011;42086;53.170;6.980;2022-11-27T09:11:15;15.93;;;5.32;;
56183;SDS011;42086;53.170;6.980;2022-11-27T09:13:44;12.98;;;5.32;;
56183;SDS011;42086;53.170;6.980;2022-11-27T09:16:11;10.80;;;4.90;;
56183;SDS011;42086;53.170;6.980;2022-11-27T09:18:39;10.65;;;5.07;;
56183;SDS011;42086;53.170;6.980;2022-11-27T09:21:06;11.60;;;5.45;;
56183;SDS011;42086;53.170;6.980;2022-11-27T09:23:33;12.32;;;5.18;;
56183;SDS011;42086;53.170;6.980;2022-11-27T09:26:02;10.40;;;4.80;;
56183;SDS011;42086;53.170;6.980;2022-11-27T09:28:29;9.88;;;5.43;;
56183;SDS011;42086;53.170;6.980;2022-11-27T09:30:57;12.25;;;5.30;;
56183;SDS011;42086;53.170;6.980;2022-11-27T09:33:24;14.98;;;5.70;;
56183;SDS011;42086;53.170;6.980;2022-11-27T09:35:51;13.88;;;5.05;;
56183;SDS011;42086;53.170;6.980;2022-11-27T09:38:17;12.32;;;5.60;;
56183;SDS011;42086;53.170;6.980;2022-11-27T09:40:47;12.48;;;5.70;;
56183;SDS011;42086;53.170;6.980;2022-11-27T09:43:14;9.98;;;5.18;;
56183;SDS011;42086;53.170;6.980;2022-11-27T09:45:46;10.15;;;5.32;;
56183;SDS011;42086;53.170;6.980;2022-11-27T09:48:19;13.50;;;6.00;;
56183;SDS011;42086;53.170;6.980;2022-11-27T09:50:52;11.73;;;5.22;;
56183;SDS011;42086;53.170;6.980;2022-11-27T09:53:22;14.10;;;5.72;;
56183;SDS011;42086;53.170;6.980;2022-11-27T09:56:08;12.55;;;4.90;;
56183;SDS011;42086;53.170;6.980;2022-11-27T09:58:42;14.98;;;5.68;;
56183;SDS011;42086;53.170;6.980;2022-11-27T10:01:11;11.55;;;5.40;;
56183;SDS011;42086;53.170;6.980;2022-11-27T10:03:39;15.07;;;5.82;;
56183;SDS011;42086;53.170;6.980;2022-11-27T10:12:12;12.23;;;4.75;;
56183;SDS011;42086;53.170;6.980;2022-11-27T10:15:10;12.02;;;5.18;;
56183;SDS011;42086;53.170;6.980;2022-11-27T10:25:53;15.93;;;6.05;;
56183;SDS011;42086;53.170;6.980;2022-11-27T10:28:48;13.65;;;5.43;;
56183;SDS011;42086;53.170;6.980;2022-11-27T10:37:03;16.75;;;6.07;;
56183;SDS011;42086;53.170;6.980;2022-11-27T10:39:54;17.23;;;5.55;;
56183;SDS011;42086;53.170;6.980;2022-11-27T10:45:04;12.95;;;6.72;;
56183;SDS011;42086;53.170;6.980;2022-11-27T10:47:32;12.82;;;6.18;;
56183;SDS011;42086;53.170;6.980;2022-11-27T10:49:58;15.30;;;6.28;;
56183;SDS011;42086;53.170;6.980;2022-11-27T10:52:25;16.83;;;6.90;;
56183;SDS011;42086;53.170;6.980;2022-11-27T10:55:01;13.10;;;6.70;;
56183;SDS011;42086;53.170;6.980;2022-11-27T11:00:22;14.82;;;5.93;;
56183;SDS011;42086;53.170;6.980;2022-11-27T11:02:58;15.45;;;6.70;;
56183;SDS011;42086;53.170;6.980;2022-11-27T11:05:25;16.63;;;7.18;;
56183;SDS011;42086;53.170;6.980;2022-11-27T11:11:23;17.10;;;6.60;;
56183;SDS011;42086;53.170;6.980;2022-11-27T11:13:32;17.58;;;7.03;;
56183;SDS011;42086;53.170;6.980;2022-11-27T11:18:47;15.57;;;7.05;;
56183;SDS011;42086;53.170;6.980;2022-11-27T11:21:26;15.50;;;6.68;;
56183;SDS011;42086;53.170;6.980;2022-11-27T11:26:30;13.48;;;6.82;;
56183;SDS011;42086;53.170;6.980;2022-11-27T11:37:59;15.05;;;6.55;;
56183;SDS011;42086;53.170;6.980;2022-11-27T11:40:31;16.30;;;6.38;;
56183;SDS011;42086;53.170;6.980;2022-11-27T11:43:00;14.00;;;6.55;;
56183;SDS011;42086;53.170;6.980;2022-11-27T11:45:32;20.20;;;7.30;;
56183;SDS011;42086;53.170;6.980;2022-11-27T11:48:14;14.68;;;6.43;;
56183;SDS011;42086;53.170;6.980;2022-11-27T11:53:35;18.27;;;7.47;;
56183;SDS011;42086;53.170;6.980;2022-11-27T12:04:33;16.10;;;6.47;;
56183;SDS011;42086;53.170;6.980;2022-11-27T12:12:28;14.80;;;6.90;;
56183;SDS011;42086;53.170;6.980;2022-11-27T12:15:08;17.27;;;6.85;;
56183;SDS011;42086;53.170;6.980;2022-11-27T12:17:41;15.75;;;7.05;;
56183;SDS011;42086;53.170;6.980;2022-11-27T12:26:08;17.52;;;6.72;;
56183;SDS011;42086;53.170;6.980;2022-11-27T12:34:27;16.75;;;7.03;;
56183;SDS011;42086;53.170;6.980;2022-11-27T12:37:32;17.88;;;7.20;;
56183;SDS011;42086;53.170;6.980;2022-11-27T12:49:18;18.63;;;6.90;;
56183;SDS011;42086;53.170;6.980;2022-11-27T12:52:14;14.35;;;7.13;;
56183;SDS011;42086;53.170;6.980;2022-11-27T12:57:17;15.32;;;7.40;;
56183;SDS011;42086;53.170;6.980;2022-11-27T12:59:55;14.48;;;7.28;;
56183;SDS011;42086;53.170;6.980;2022-11-27T13:04:56;14.88;;;7.22;;
56183;SDS011;42086;53.170;6.980;2022-11-27T13:07:39;14.52;;;6.65;;
56183;SDS011;42086;53.170;6.980;2022-11-27T13:12:57;17.27;;;7.72;;
56183;SDS011;42086;53.170;6.980;2022-11-27T13:20:44;18.60;;;7.22;;
56183;SDS011;42086;53.170;6.980;2022-11-27T13:23:12;17.63;;;7.28;;
56183;SDS011;42086;53.170;6.980;2022-11-27T13:25:42;16.95;;;7.57;;
56183;SDS011;42086;53.170;6.980;2022-11-27T13:28:21;15.77;;;7.05;;
56183;SDS011;42086;53.170;6.980;2022-11-27T13:30:54;16.50;;;7.47;;
56183;SDS011;42086;53.170;6.980;2022-11-27T13:33:29;14.43;;;7.22;;
56183;SDS011;42086;53.170;6.980;2022-11-27T13:36:02;15.25;;;6.95;;
56183;SDS011;42086;53.170;6.980;2022-11-27T13:38:31;13.57;;;7.88;;
56183;SDS011;42086;53.170;6.980;2022-11-27T13:40:58;14.43;;;7.07;;
56183;SDS011;42086;53.170;6.980;2022-11-27T13:43:44;18.63;;;7.45;;
56183;SDS011;42086;53.170;6.980;2022-11-27T13:46:22;17.00;;;7.55;;
56183;SDS011;42086;53.170;6.980;2022-11-27T13:51:34;15.82;;;6.85;;
56183;SDS011;42086;53.170;6.980;2022-11-27T13:54:09;14.23;;;8.18;;
56183;SDS011;42086;53.170;6.980;2022-11-27T13:56:42;16.30;;;7.70;;
56183;SDS011;42086;53.170;6.980;2022-11-27T13:59:12;16.33;;;7.80;;
56183;SDS011;42086;53.170;6.980;2022-11-27T14:01:58;14.52;;;7.43;;
56183;SDS011;42086;53.170;6.980;2022-11-27T14:04:26;15.93;;;7.20;;
56183;SDS011;42086;53.170;6.980;2022-11-27T14:07:05;14.10;;;7.55;;
56183;SDS011;42086;53.170;6.980;2022-11-27T14:09:46;20.42;;;7.28;;
56183;SDS011;42086;53.170;6.980;2022-11-27T14:12:21;13.43;;;7.43;;
56183;SDS011;42086;53.170;6.980;2022-11-27T14:17:41;15.85;;;7.88;;
56183;SDS011;42086;53.170;6.980;2022-11-27T14:27:52;18.02;;;7.95;;
56183;SDS011;42086;53.170;6.980;2022-11-27T14:33:51;14.85;;;8.20;;
56183;SDS011;42086;53.170;6.980;2022-11-27T14:36:20;17.70;;;8.15;;
56183;SDS011;42086;53.170;6.980;2022-11-27T14:38:50;17.20;;;8.25;;
56183;SDS011;42086;53.170;6.980;2022-11-27T14:41:17;19.40;;;8.43;;
56183;SDS011;42086;53.170;6.980;2022-11-27T14:43:45;15.93;;;7.85;;
56183;SDS011;42086;53.170;6.980;2022-11-27T14:46:20;16.88;;;7.88;;
56183;SDS011;42086;53.170;6.980;2022-11-27T14:48:47;16.38;;;8.32;;
56183;SDS011;42086;53.170;6.980;2022-11-27T14:51:16;15.45;;;7.95;;
56183;SDS011;42086;53.170;6.980;2022-11-27T14:53:47;17.60;;;8.50;;
56183;SDS011;42086;53.170;6.980;2022-11-27T14:56:16;17.60;;;8.95;;
56183;SDS011;42086;53.170;6.980;2022-11-27T14:58:45;18.30;;;9.13;;
56183;SDS011;42086;53.170;6.980;2022-11-27T15:01:23;18.08;;;8.20;;
56183;SDS011;42086;53.170;6.980;2022-11-27T15:03:55;18.42;;;8.80;;
56183;SDS011;42086;53.170;6.980;2022-11-27T15:06:21;19.83;;;9.02;;
56183;SDS011;42086;53.170;6.980;2022-11-27T15:08:48;16.35;;;8.05;;
56183;SDS011;42086;53.170;6.980;2022-11-27T15:11:15;19.23;;;9.20;;
56183;SDS011;42086;53.170;6.980;2022-11-27T15:13:41;21.33;;;9.23;;
56183;SDS011;42086;53.170;6.980;2022-11-27T15:16:13;16.80;;;8.43;;
56183;SDS011;42086;53.170;6.980;2022-11-27T15:18:55;20.70;;;8.20;;
56183;SDS011;42086;53.170;6.980;2022-11-27T15:21:24;17.15;;;7.93;;
56183;SDS011;42086;53.170;6.980;2022-11-27T15:23:52;15.05;;;7.88;;
56183;SDS011;42086;53.170;6.980;2022-11-27T15:26:35;15.02;;;8.40;;
56183;SDS011;42086;53.170;6.980;2022-11-27T15:32:17;19.92;;;8.68;;
56183;SDS011;42086;53.170;6.980;2022-11-27T15:34:45;21.03;;;7.73;;
56183;SDS011;42086;53.170;6.980;2022-11-27T15:37:29;17.55;;;7.90;;
56183;SDS011;42086;53.170;6.980;2022-11-27T15:40:00;17.75;;;8.60;;
56183;SDS011;42086;53.170;6.980;2022-11-27T15:42:26;17.30;;;8.45;;
56183;SDS011;42086;53.170;6.980;2022-11-27T15:44:53;15.90;;;8.55;;
56183;SDS011;42086;53.170;6.980;2022-11-27T15:47:33;17.25;;;7.85;;
56183;SDS011;42086;53.170;6.980;2022-11-27T15:50:02;17.92;;;7.97;;
56183;SDS011;42086;53.170;6.980;2022-11-27T15:52:29;16.10;;;8.07;;
56183;SDS011;42086;53.170;6.980;2022-11-27T15:54:54;17.15;;;8.50;;
56183;SDS011;42086;53.170;6.980;2022-11-27T15:57:20;19.73;;;8.70;;
56183;SDS011;42086;53.170;6.980;2022-11-27T15:59:47;17.65;;;8.48;;
56183;SDS011;42086;53.170;6.980;2022-11-27T16:02:12;15.00;;;7.97;;
56183;SDS011;42086;53.170;6.980;2022-11-27T16:04:38;16.20;;;8.48;;
56183;SDS011;42086;53.170;6.980;2022-11-27T16:07:04;14.18;;;7.70;;
56183;SDS011;42086;53.170;6.980;2022-11-27T16:09:30;14.55;;;8.20;;
56183;SDS011;42086;53.170;6.980;2022-11-27T16:11:56;16.88;;;8.00;;
56183;SDS011;42086;53.170;6.980;2022-11-27T16:14:22;16.92;;;8.27;;
56183;SDS011;42086;53.170;6.980;2022-11-27T16:16:47;16.10;;;8.25;;
56183;SDS011;42086;53.170;6.980;2022-11-27T16:19:13;15.60;;;8.15;;
56183;SDS011;42086;53.170;6.980;2022-11-27T16:21:40;18.65;;;8.20;;
56183;SDS011;42086;53.170;6.980;2022-11-27T16:24:08;16.17;;;8.00;;
56183;SDS011;42086;53.170;6.980;2022-11-27T16:26:36;17.95;;;8.00;;
56183;SDS011;42086;53.170;6.980;2022-11-27T16:29:03;16.63;;;7.57;;
56183;SDS011;42086;53.170;6.980;2022-11-27T16:31:29;15.18;;;8.02;;
56183;SDS011;42086;53.170;6.980;2022-11-27T16:33:56;15.18;;;8.15;;
56183;SDS011;42086;53.170;6.980;2022-11-27T16:36:21;14.35;;;7.70;;
56183;SDS011;42086;53.170;6.980;2022-11-27T16:38:48;15.02;;;7.90;;
56183;SDS011;42086;53.170;6.980;2022-11-27T16:41:16;17.40;;;8.23;;
56183;SDS011;42086;53.170;6.980;2022-11-27T16:43:44;15.18;;;7.63;;
56183;SDS011;42086;53.170;6.980;2022-11-27T16:48:47;11.75;;;7.00;;
56183;SDS011;42086;53.170;6.980;2022-11-27T16:51:15;13.75;;;8.00;;
56183;SDS011;42086;53.170;6.980;2022-11-27T16:53:49;18.05;;;8.30;;
56183;SDS011;42086;53.170;6.980;2022-11-27T16:56:18;14.23;;;7.93;;
56183;SDS011;42086;53.170;6.980;2022-11-27T16:58:46;16.08;;;8.40;;
56183;SDS011;42086;53.170;6.980;2022-11-27T17:01:13;17.10;;;8.48;;
56183;SDS011;42086;53.170;6.980;2022-11-27T17:03:41;16.50;;;8.15;;
56183;SDS011;42086;53.170;6.980;2022-11-27T17:06:11;15.85;;;7.75;;
56183;SDS011;42086;53.170;6.980;2022-11-27T17:08:38;14.38;;;7.68;;
56183;SDS011;42086;53.170;6.980;2022-11-27T17:13:34;14.20;;;7.75;;
56183;SDS011;42086;53.170;6.980;2022-11-27T17:16:00;13.77;;;6.93;;
56183;SDS011;42086;53.170;6.980;2022-11-27T17:18:26;14.68;;;7.63;;
56183;SDS011;42086;53.170;6.980;2022-11-27T17:20:51;17.73;;;8.05;;
56183;SDS011;42086;53.170;6.980;2022-11-27T17:23:17;15.63;;;7.22;;
56183;SDS011;42086;53.170;6.980;2022-11-27T17:25:43;12.70;;;7.18;;